sensor_id;sensor_type;location;lat;lon;timestamp;P1;durP1;ratioP1;P2;durP2;ratioP2
38318;SDS011;24121;53.536;10.224;2022-08-01T08:14:37;13.02;;;4.75;;
38318;SDS011;24121;53.536;10.224;2022-08-01T08:17:03;13.70;;;5.30;;
38318;SDS011;24121;53.536;10.224;2022-08-01T08:19:29;11.15;;;5.05;;
38318;SDS011;24121;53.536;10.224;2022-08-01T08:21:54;12.80;;;4.72;;
38318;SDS011;24121;53.536;10.224;2022-08-01T08:24:20;10.20;;;4.60;;
38318;SDS011;24121;53.536;10.224;2022-08-01T08:26:45;10.30;;;3.97;;
38318;SDS011;24121;53.536;10.224;2022-08-01T08:31:41;12.50;;;3.88;;
38318;SDS011;24121;53.536;10.224;2022-08-01T08:34:06;10.75;;;5.38;;
38318;SDS011;24121;53.536;10.224;2022-08-01T08:36:32;13.73;;;4.80;;
38318;SDS011;24121;53.536;10.224;2022-08-01T08:39:00;12.55;;;4.53;;
38318;SDS011;24121;53.536;10.224;2022-08-01T08:41:26;9.00;;;4.47;;
38318;SDS011;24121;53.536;10.224;2022-08-01T08:43:51;15.98;;;4.40;;
38318;SDS011;24121;53.536;10.224;2022-08-01T08:46:18;8.90;;;3.72;;
38318;SDS011;24121;53.536;10.224;2022-08-01T08:48:43;9.15;;;3.25;;
38318;SDS011;24121;53.536;10.224;2022-08-01T08:51:09;9.02;;;3.40;;
38318;SDS011;24121;53.536;10.224;2022-08-01T08:53:37;11.82;;;3.15;;
38318;SDS011;24121;53.536;10.224;2022-08-01T08:56:03;8.88;;;3.22;;
38318;SDS011;24121;53.536;10.224;2022-08-01T08:58:32;8.23;;;3.00;;
38318;SDS011;24121;53.536;10.224;2022-08-01T09:01:02;8.05;;;2.67;;
38318;SDS011;24121;53.536;10.224;2022-08-01T09:03:30;8.15;;;3.22;;
38318;SDS011;24121;53.536;10.224;2022-08-01T09:05:55;10.18;;;3.30;;
38318;SDS011;24121;53.536;10.224;2022-08-01T09:08:21;10.82;;;3.88;;
38318;SDS011;24121;53.536;10.224;2022-08-01T09:10:46;14.20;;;4.00;;
38318;SDS011;24121;53.536;10.224;2022-08-01T09:13:12;10.95;;;3.92;;
38318;SDS011;24121;53.536;10.224;2022-08-01T09:15:45;6.85;;;3.20;;
38318;SDS011;24121;53.536;10.224;2022-08-01T09:23:52;6.38;;;3.35;;
38318;SDS011;24121;53.536;10.224;2022-08-01T09:26:21;12.32;;;3.13;;
38318;SDS011;24121;53.536;10.224;2022-08-01T09:28:53;8.68;;;3.15;;
38318;SDS011;24121;53.536;10.224;2022-08-01T09:31:19;7.80;;;2.60;;
38318;SDS011;24121;53.536;10.224;2022-08-01T09:33:49;5.32;;;2.80;;
38318;SDS011;24121;53.536;10.224;2022-08-01T09:36:19;8.32;;;2.78;;
38318;SDS011;24121;53.536;10.224;2022-08-01T09:38:45;4.90;;;2.58;;
38318;SDS011;24121;53.536;10.224;2022-08-01T09:41:10;5.47;;;2.83;;
38318;SDS011;24121;53.536;10.224;2022-08-01T09:43:36;8.07;;;2.60;;
38318;SDS011;24121;53.536;10.224;2022-08-01T09:46:08;6.43;;;2.58;;
38318;SDS011;24121;53.536;10.224;2022-08-01T09:48:38;5.53;;;2.42;;
38318;SDS011;24121;53.536;10.224;2022-08-01T09:51:04;7.15;;;2.70;;
38318;SDS011;24121;53.536;10.224;2022-08-01T09:56:25;9.07;;;3.03;;
38318;SDS011;24121;53.536;10.224;2022-08-01T09:58:55;8.18;;;2.72;;
38318;SDS011;24121;53.536;10.224;2022-08-01T10:01:22;8.70;;;2.95;;
38318;SDS011;24121;53.536;10.224;2022-08-01T10:04:07;6.93;;;2.88;;
38318;SDS011;24121;53.536;10.224;2022-08-01T10:06:32;7.70;;;3.13;;
38318;SDS011;24121;53.536;10.224;2022-08-01T10:08:58;7.03;;;2.70;;
38318;SDS011;24121;53.536;10.224;2022-08-01T10:11:23;7.22;;;2.33;;
38318;SDS011;24121;53.536;10.224;2022-08-01T10:13:49;8.20;;;3.22;;
38318;SDS011;24121;53.536;10.224;2022-08-01T10:16:14;7.82;;;2.80;;
38318;SDS011;24121;53.536;10.224;2022-08-01T10:18:41;9.43;;;3.00;;
38318;SDS011;24121;53.536;10.224;2022-08-01T10:21:07;6.55;;;2.30;;
38318;SDS011;24121;53.536;10.224;2022-08-01T10:23:34;8.07;;;3.20;;
38318;SDS011;24121;53.536;10.224;2022-08-01T10:26:00;7.85;;;2.78;;
38318;SDS011;24121;53.536;10.224;2022-08-01T10:28:26;7.65;;;2.70;;
38318;SDS011;24121;53.536;10.224;2022-08-01T10:30:51;7.70;;;2.63;;
38318;SDS011;24121;53.536;10.224;2022-08-01T10:33:17;5.97;;;2.70;;
38318;SDS011;24121;53.536;10.224;2022-08-01T10:35:45;5.13;;;2.38;;
38318;SDS011;24121;53.536;10.224;2022-08-01T10:38:11;8.93;;;2.25;;
38318;SDS011;24121;53.536;10.224;2022-08-01T10:40:36;8.55;;;2.55;;
38318;SDS011;24121;53.536;10.224;2022-08-01T10:45:39;8.20;;;2.60;;
38318;SDS011;24121;53.536;10.224;2022-08-01T10:48:16;10.98;;;2.42;;
38318;SDS011;24121;53.536;10.224;2022-08-01T10:50:44;9.13;;;2.70;;
38318;SDS011;24121;53.536;10.224;2022-08-01T10:55:45;7.35;;;2.42;;
38318;SDS011;24121;53.536;10.224;2022-08-01T10:58:13;9.00;;;2.27;;
38318;SDS011;24121;53.536;10.224;2022-08-01T11:00:38;7.05;;;2.15;;
38318;SDS011;24121;53.536;10.224;2022-08-01T11:03:04;9.68;;;2.50;;
38318;SDS011;24121;53.536;10.224;2022-08-01T11:05:33;5.85;;;2.88;;
38318;SDS011;24121;53.536;10.224;2022-08-01T11:08:09;10.10;;;2.83;;
38318;SDS011;24121;53.536;10.224;2022-08-01T11:10:39;10.43;;;3.00;;
38318;SDS011;24121;53.536;10.224;2022-08-01T11:13:08;9.38;;;2.80;;
38318;SDS011;24121;53.536;10.224;2022-08-01T11:15:34;6.57;;;2.50;;
38318;SDS011;24121;53.536;10.224;2022-08-01T11:18:03;7.85;;;2.65;;
38318;SDS011;24121;53.536;10.224;2022-08-01T11:20:56;6.30;;;1.92;;
38318;SDS011;24121;53.536;10.224;2022-08-01T11:23:26;3.63;;;1.77;;
38318;SDS011;24121;53.536;10.224;2022-08-01T11:28:19;10.03;;;2.57;;
38318;SDS011;24121;53.536;10.224;2022-08-01T11:38:44;7.93;;;2.38;;
38318;SDS011;24121;53.536;10.224;2022-08-01T11:41:15;5.35;;;2.10;;
38318;SDS011;24121;53.536;10.224;2022-08-01T11:43:55;6.32;;;2.22;;
38318;SDS011;24121;53.536;10.224;2022-08-01T11:57:05;5.73;;;1.43;;
38318;SDS011;24121;53.536;10.224;2022-08-01T11:59:36;7.35;;;1.77;;
38318;SDS011;24121;53.536;10.224;2022-08-01T12:02:02;8.27;;;1.85;;
38318;SDS011;24121;53.536;10.224;2022-08-01T12:04:43;9.50;;;2.15;;
38318;SDS011;24121;53.536;10.224;2022-08-01T12:07:43;8.25;;;2.08;;
38318;SDS011;24121;53.536;10.224;2022-08-01T12:10:14;5.05;;;1.70;;
38318;SDS011;24121;53.536;10.224;2022-08-01T12:15:09;8.10;;;1.95;;
38318;SDS011;24121;53.536;10.224;2022-08-01T12:17:43;6.70;;;1.85;;
38318;SDS011;24121;53.536;10.224;2022-08-01T12:20:13;8.15;;;1.80;;
38318;SDS011;24121;53.536;10.224;2022-08-01T12:22:46;5.00;;;1.60;;
38318;SDS011;24121;53.536;10.224;2022-08-01T12:25:12;7.18;;;2.10;;
38318;SDS011;24121;53.536;10.224;2022-08-01T12:27:39;7.68;;;1.83;;
38318;SDS011;24121;53.536;10.224;2022-08-01T12:30:06;6.90;;;1.80;;
38318;SDS011;24121;53.536;10.224;2022-08-01T12:32:37;5.00;;;1.60;;
38318;SDS011;24121;53.536;10.224;2022-08-01T12:37:36;11.65;;;1.80;;
38318;SDS011;24121;53.536;10.224;2022-08-01T12:40:08;6.55;;;2.17;;
38318;SDS011;24121;53.536;10.224;2022-08-01T12:42:43;8.98;;;1.75;;
38318;SDS011;24121;53.536;10.224;2022-08-01T12:45:14;9.40;;;2.58;;
38318;SDS011;24121;53.536;10.224;2022-08-01T12:47:41;8.55;;;2.00;;
38318;SDS011;24121;53.536;10.224;2022-08-01T12:50:07;10.43;;;2.03;;
38318;SDS011;24121;53.536;10.224;2022-08-01T12:52:36;5.88;;;1.50;;
38318;SDS011;24121;53.536;10.224;2022-08-01T12:55:06;6.93;;;1.92;;
38318;SDS011;24121;53.536;10.224;2022-08-01T12:57:33;6.57;;;1.70;;
38318;SDS011;24121;53.536;10.224;2022-08-01T13:00:15;7.15;;;1.58;;
38318;SDS011;24121;53.536;10.224;2022-08-01T13:02:45;23.75;;;2.50;;
38318;SDS011;24121;53.536;10.224;2022-08-01T13:05:11;3.83;;;1.10;;
38318;SDS011;24121;53.536;10.224;2022-08-01T13:07:47;6.28;;;1.70;;
38318;SDS011;24121;53.536;10.224;2022-08-01T13:10:14;6.30;;;1.52;;
38318;SDS011;24121;53.536;10.224;2022-08-01T13:12:40;17.80;;;2.78;;
38318;SDS011;24121;53.536;10.224;2022-08-01T13:17:48;5.82;;;1.67;;
38318;SDS011;24121;53.536;10.224;2022-08-01T13:20:21;5.53;;;1.33;;
38318;SDS011;24121;53.536;10.224;2022-08-01T13:22:50;5.70;;;1.70;;
38318;SDS011;24121;53.536;10.224;2022-08-01T13:25:16;8.45;;;1.80;;
38318;SDS011;24121;53.536;10.224;2022-08-01T13:27:42;6.18;;;1.85;;
38318;SDS011;24121;53.536;10.224;2022-08-01T13:30:15;4.60;;;1.30;;
38318;SDS011;24121;53.536;10.224;2022-08-01T13:32:42;6.88;;;1.70;;
38318;SDS011;24121;53.536;10.224;2022-08-01T13:35:10;4.50;;;1.70;;
38318;SDS011;24121;53.536;10.224;2022-08-01T13:37:37;7.97;;;1.40;;
38318;SDS011;24121;53.536;10.224;2022-08-01T13:40:04;5.35;;;1.55;;
38318;SDS011;24121;53.536;10.224;2022-08-01T13:42:30;7.05;;;1.98;;
38318;SDS011;24121;53.536;10.224;2022-08-01T13:44:56;5.45;;;1.50;;
38318;SDS011;24121;53.536;10.224;2022-08-01T13:47:22;5.55;;;1.50;;
38318;SDS011;24121;53.536;10.224;2022-08-01T13:49:47;6.10;;;2.03;;
38318;SDS011;24121;53.536;10.224;2022-08-01T13:52:12;5.55;;;1.77;;
38318;SDS011;24121;53.536;10.224;2022-08-01T13:54:38;4.38;;;1.50;;
38318;SDS011;24121;53.536;10.224;2022-08-01T13:57:03;8.93;;;1.80;;
38318;SDS011;24121;53.536;10.224;2022-08-01T13:59:28;5.85;;;1.60;;
38318;SDS011;24121;53.536;10.224;2022-08-01T14:01:54;7.38;;;1.33;;
38318;SDS011;24121;53.536;10.224;2022-08-01T14:04:19;4.22;;;1.42;;
38318;SDS011;24121;53.536;10.224;2022-08-01T14:06:46;5.82;;;1.67;;
38318;SDS011;24121;53.536;10.224;2022-08-01T14:09:11;6.35;;;2.08;;
38318;SDS011;24121;53.536;10.224;2022-08-01T14:11:36;4.60;;;1.52;;
38318;SDS011;24121;53.536;10.224;2022-08-01T14:14:02;4.10;;;1.40;;
38318;SDS011;24121;53.536;10.224;2022-08-01T14:16:28;6.25;;;1.65;;
38318;SDS011;24121;53.536;10.224;2022-08-01T14:18:53;9.57;;;1.48;;
38318;SDS011;24121;53.536;10.224;2022-08-01T14:21:18;4.25;;;1.50;;
38318;SDS011;24121;53.536;10.224;2022-08-01T14:23:44;6.03;;;1.33;;
38318;SDS011;24121;53.536;10.224;2022-08-01T14:26:09;5.25;;;1.30;;
38318;SDS011;24121;53.536;10.224;2022-08-01T14:28:38;4.88;;;1.40;;
38318;SDS011;24121;53.536;10.224;2022-08-01T14:31:04;4.55;;;1.38;;
38318;SDS011;24121;53.536;10.224;2022-08-01T14:33:31;6.90;;;1.88;;
38318;SDS011;24121;53.536;10.224;2022-08-01T14:35:56;5.05;;;1.52;;
38318;SDS011;24121;53.536;10.224;2022-08-01T14:38:21;4.85;;;1.40;;
38318;SDS011;24121;53.536;10.224;2022-08-01T14:40:47;3.90;;;1.60;;
38318;SDS011;24121;53.536;10.224;2022-08-01T14:43:16;4.20;;;1.33;;
38318;SDS011;24121;53.536;10.224;2022-08-01T14:45:44;3.88;;;1.35;;
38318;SDS011;24121;53.536;10.224;2022-08-01T14:48:09;7.47;;;1.60;;
38318;SDS011;24121;53.536;10.224;2022-08-01T14:50:35;5.47;;;1.52;;
38318;SDS011;24121;53.536;10.224;2022-08-01T14:53:00;10.00;;;2.08;;
38318;SDS011;24121;53.536;10.224;2022-08-01T14:55:26;9.05;;;1.40;;
38318;SDS011;24121;53.536;10.224;2022-08-01T14:57:52;4.45;;;1.30;;
38318;SDS011;24121;53.536;10.224;2022-08-01T15:00:17;4.90;;;1.45;;
38318;SDS011;24121;53.536;10.224;2022-08-01T15:02:43;8.07;;;1.52;;
38318;SDS011;24121;53.536;10.224;2022-08-01T15:05:08;5.15;;;1.50;;
38318;SDS011;24121;53.536;10.224;2022-08-01T15:07:34;5.43;;;2.28;;
38318;SDS011;24121;53.536;10.224;2022-08-01T15:09:59;4.43;;;1.20;;
38318;SDS011;24121;53.536;10.224;2022-08-01T15:12:25;4.28;;;1.30;;
38318;SDS011;24121;53.536;10.224;2022-08-01T15:14:50;5.55;;;1.67;;
38318;SDS011;24121;53.536;10.224;2022-08-01T15:17:20;11.15;;;1.60;;
38318;SDS011;24121;53.536;10.224;2022-08-01T15:19:47;5.20;;;1.50;;
38318;SDS011;24121;53.536;10.224;2022-08-01T15:22:14;5.90;;;1.58;;
38318;SDS011;24121;53.536;10.224;2022-08-01T15:24:40;6.40;;;1.80;;
38318;SDS011;24121;53.536;10.224;2022-08-01T15:27:06;5.40;;;1.40;;
38318;SDS011;24121;53.536;10.224;2022-08-01T15:29:31;5.90;;;1.88;;
38318;SDS011;24121;53.536;10.224;2022-08-01T15:31:58;7.47;;;1.60;;
38318;SDS011;24121;53.536;10.224;2022-08-01T15:34:23;8.90;;;2.08;;
38318;SDS011;24121;53.536;10.224;2022-08-01T15:36:50;8.10;;;1.95;;
38318;SDS011;24121;53.536;10.224;2022-08-01T15:39:15;4.65;;;1.50;;
38318;SDS011;24121;53.536;10.224;2022-08-01T15:41:41;5.38;;;1.77;;
38318;SDS011;24121;53.536;10.224;2022-08-01T15:44:06;7.38;;;1.42;;
38318;SDS011;24121;53.536;10.224;2022-08-01T15:46:32;8.10;;;1.75;;
38318;SDS011;24121;53.536;10.224;2022-08-01T15:48:57;9.60;;;2.05;;
38318;SDS011;24121;53.536;10.224;2022-08-01T15:51:27;6.30;;;1.83;;
38318;SDS011;24121;53.536;10.224;2022-08-01T15:53:52;6.90;;;2.28;;
38318;SDS011;24121;53.536;10.224;2022-08-01T15:56:17;7.43;;;1.90;;
38318;SDS011;24121;53.536;10.224;2022-08-01T15:58:42;7.40;;;2.17;;
38318;SDS011;24121;53.536;10.224;2022-08-01T16:01:08;9.48;;;1.85;;
38318;SDS011;24121;53.536;10.224;2022-08-01T16:03:33;7.07;;;1.92;;
38318;SDS011;24121;53.536;10.224;2022-08-01T16:05:58;6.82;;;2.00;;
38318;SDS011;24121;53.536;10.224;2022-08-01T16:08:24;12.35;;;2.80;;
38318;SDS011;24121;53.536;10.224;2022-08-01T16:10:49;5.63;;;2.03;;
38318;SDS011;24121;53.536;10.224;2022-08-01T16:13:15;9.88;;;1.95;;
38318;SDS011;24121;53.536;10.224;2022-08-01T16:15:40;11.38;;;2.10;;
38318;SDS011;24121;53.536;10.224;2022-08-01T16:18:06;5.47;;;1.48;;
38318;SDS011;24121;53.536;10.224;2022-08-01T16:20:32;6.78;;;1.95;;
38318;SDS011;24121;53.536;10.224;2022-08-01T16:22:58;8.20;;;1.92;;
38318;SDS011;24121;53.536;10.224;2022-08-01T16:25:23;10.95;;;2.03;;
38318;SDS011;24121;53.536;10.224;2022-08-01T16:27:48;5.68;;;1.90;;
38318;SDS011;24121;53.536;10.224;2022-08-01T16:30:14;8.02;;;2.22;;
38318;SDS011;24121;53.536;10.224;2022-08-01T16:32:39;11.30;;;2.20;;
38318;SDS011;24121;53.536;10.224;2022-08-01T16:35:04;7.10;;;2.20;;
38318;SDS011;24121;53.536;10.224;2022-08-01T16:37:30;7.85;;;2.47;;
38318;SDS011;24121;53.536;10.224;2022-08-01T16:39:55;7.22;;;2.13;;
38318;SDS011;24121;53.536;10.224;2022-08-01T16:42:21;8.07;;;2.08;;
38318;SDS011;24121;53.536;10.224;2022-08-01T16:44:46;7.28;;;2.10;;
38318;SDS011;24121;53.536;10.224;2022-08-01T16:47:11;8.38;;;2.38;;
38318;SDS011;24121;53.536;10.224;2022-08-01T16:49:37;7.35;;;2.25;;
38318;SDS011;24121;53.536;10.224;2022-08-01T16:52:02;10.68;;;2.50;;
38318;SDS011;24121;53.536;10.224;2022-08-01T16:54:28;7.43;;;1.90;;
38318;SDS011;24121;53.536;10.224;2022-08-01T16:56:53;6.82;;;2.35;;
38318;SDS011;24121;53.536;10.224;2022-08-01T16:59:19;6.95;;;2.47;;
38318;SDS011;24121;53.536;10.224;2022-08-01T17:01:44;10.98;;;2.20;;
38318;SDS011;24121;53.536;10.224;2022-08-01T17:04:10;7.57;;;2.35;;
38318;SDS011;24121;53.536;10.224;2022-08-01T17:06:35;10.80;;;2.50;;
38318;SDS011;24121;53.536;10.224;2022-08-01T17:09:01;10.57;;;2.55;;
38318;SDS011;24121;53.536;10.224;2022-08-01T17:11:26;7.00;;;2.08;;
38318;SDS011;24121;53.536;10.224;2022-08-01T17:13:52;6.22;;;2.25;;
38318;SDS011;24121;53.536;10.224;2022-08-01T17:16:17;9.38;;;2.40;;
38318;SDS011;24121;53.536;10.224;2022-08-01T17:18:43;11.02;;;2.63;;
38318;SDS011;24121;53.536;10.224;2022-08-01T17:21:08;9.52;;;2.08;;
38318;SDS011;24121;53.536;10.224;2022-08-01T17:23:33;9.40;;;2.65;;
38318;SDS011;24121;53.536;10.224;2022-08-01T17:25:59;11.18;;;2.72;;
38318;SDS011;24121;53.536;10.224;2022-08-01T17:28:25;7.35;;;2.33;;
38318;SDS011;24121;53.536;10.224;2022-08-01T17:30:50;10.40;;;3.00;;
38318;SDS011;24121;53.536;10.224;2022-08-01T17:33:16;7.70;;;2.30;;
38318;SDS011;24121;53.536;10.224;2022-08-01T17:35:41;10.60;;;2.80;;
38318;SDS011;24121;53.536;10.224;2022-08-01T17:38:06;7.90;;;2.20;;
38318;SDS011;24121;53.536;10.224;2022-08-01T17:40:32;7.43;;;2.28;;
38318;SDS011;24121;53.536;10.224;2022-08-01T17:42:57;10.90;;;2.67;;
38318;SDS011;24121;53.536;10.224;2022-08-01T17:45:22;8.25;;;2.58;;
38318;SDS011;24121;53.536;10.224;2022-08-01T17:47:48;6.82;;;2.22;;
38318;SDS011;24121;53.536;10.224;2022-08-01T17:50:13;5.95;;;2.35;;
38318;SDS011;24121;53.536;10.224;2022-08-01T17:52:39;7.22;;;2.28;;
38318;SDS011;24121;53.536;10.224;2022-08-01T17:55:04;7.18;;;2.50;;
38318;SDS011;24121;53.536;10.224;2022-08-01T17:57:30;7.20;;;2.28;;
38318;SDS011;24121;53.536;10.224;2022-08-01T17:59:56;9.15;;;2.00;;
38318;SDS011;24121;53.536;10.224;2022-08-01T18:02:22;10.77;;;2.58;;
38318;SDS011;24121;53.536;10.224;2022-08-01T18:04:48;7.93;;;2.38;;
38318;SDS011;24121;53.536;10.224;2022-08-01T18:07:15;8.93;;;2.17;;
38318;SDS011;24121;53.536;10.224;2022-08-01T18:09:41;4.97;;;1.48;;
38318;SDS011;24121;53.536;10.224;2022-08-01T18:12:06;9.57;;;2.22;;
38318;SDS011;24121;53.536;10.224;2022-08-01T18:14:31;6.72;;;2.28;;
38318;SDS011;24121;53.536;10.224;2022-08-01T18:16:57;9.50;;;2.35;;
38318;SDS011;24121;53.536;10.224;2022-08-01T18:19:22;7.05;;;2.28;;
38318;SDS011;24121;53.536;10.224;2022-08-01T18:21:47;9.55;;;1.95;;
38318;SDS011;24121;53.536;10.224;2022-08-01T18:24:13;8.75;;;2.17;;
38318;SDS011;24121;53.536;10.224;2022-08-01T18:26:41;7.30;;;1.90;;
38318;SDS011;24121;53.536;10.224;2022-08-01T18:29:09;5.95;;;1.80;;
38318;SDS011;24121;53.536;10.224;2022-08-01T18:31:35;7.40;;;2.00;;
38318;SDS011;24121;53.536;10.224;2022-08-01T18:34:00;6.80;;;1.70;;
38318;SDS011;24121;53.536;10.224;2022-08-01T18:36:26;8.90;;;2.30;;
38318;SDS011;24121;53.536;10.224;2022-08-01T18:38:52;8.27;;;2.35;;
38318;SDS011;24121;53.536;10.224;2022-08-01T18:41:18;10.27;;;2.63;;
38318;SDS011;24121;53.536;10.224;2022-08-01T18:43:43;7.95;;;2.10;;
38318;SDS011;24121;53.536;10.224;2022-08-01T18:46:09;7.93;;;2.38;;
38318;SDS011;24121;53.536;10.224;2022-08-01T18:48:34;11.68;;;2.08;;
38318;SDS011;24121;53.536;10.224;2022-08-01T18:51:00;7.78;;;2.33;;
38318;SDS011;24121;53.536;10.224;2022-08-01T18:53:25;11.32;;;2.13;;
38318;SDS011;24121;53.536;10.224;2022-08-01T18:55:51;9.18;;;2.15;;
38318;SDS011;24121;53.536;10.224;2022-08-01T18:58:16;9.82;;;2.03;;
38318;SDS011;24121;53.536;10.224;2022-08-01T19:00:42;7.57;;;2.03;;
38318;SDS011;24121;53.536;10.224;2022-08-01T19:03:07;9.25;;;2.22;;
38318;SDS011;24121;53.536;10.224;2022-08-01T19:05:33;7.88;;;2.50;;
38318;SDS011;24121;53.536;10.224;2022-08-01T19:07:59;9.65;;;2.13;;
38318;SDS011;24121;53.536;10.224;2022-08-01T19:10:24;9.60;;;2.08;;
38318;SDS011;24121;53.536;10.224;2022-08-01T19:12:50;6.20;;;1.90;;
38318;SDS011;24121;53.536;10.224;2022-08-01T19:15:15;11.50;;;2.78;;
38318;SDS011;24121;53.536;10.224;2022-08-01T19:17:41;6.30;;;2.25;;
38318;SDS011;24121;53.536;10.224;2022-08-01T19:20:06;7.72;;;1.77;;
38318;SDS011;24121;53.536;10.224;2022-08-01T19:22:32;6.25;;;2.10;;
38318;SDS011;24121;53.536;10.224;2022-08-01T19:24:58;7.18;;;2.20;;
38318;SDS011;24121;53.536;10.224;2022-08-01T19:27:23;6.80;;;1.83;;
38318;SDS011;24121;53.536;10.224;2022-08-01T19:29:51;8.98;;;2.10;;
38318;SDS011;24121;53.536;10.224;2022-08-01T19:32:19;9.20;;;1.98;;
38318;SDS011;24121;53.536;10.224;2022-08-01T19:34:55;7.55;;;2.08;;
38318;SDS011;24121;53.536;10.224;2022-08-01T19:37:30;9.95;;;2.38;;
38318;SDS011;24121;53.536;10.224;2022-08-01T19:39:56;7.88;;;2.28;;
38318;SDS011;24121;53.536;10.224;2022-08-01T19:42:26;10.98;;;2.38;;
38318;SDS011;24121;53.536;10.224;2022-08-01T19:44:53;8.73;;;2.20;;
38318;SDS011;24121;53.536;10.224;2022-08-01T19:47:18;8.70;;;2.65;;
38318;SDS011;24121;53.536;10.224;2022-08-01T19:49:44;10.25;;;2.47;;
38318;SDS011;24121;53.536;10.224;2022-08-01T19:52:09;10.40;;;2.25;;
38318;SDS011;24121;53.536;10.224;2022-08-01T19:54:39;7.22;;;1.92;;
38318;SDS011;24121;53.536;10.224;2022-08-01T19:57:06;11.65;;;2.63;;
38318;SDS011;24121;53.536;10.224;2022-08-01T19:59:33;7.13;;;2.03;;
38318;SDS011;24121;53.536;10.224;2022-08-01T20:01:59;7.80;;;2.70;;
38318;SDS011;24121;53.536;10.224;2022-08-01T20:04:25;11.85;;;2.75;;
38318;SDS011;24121;53.536;10.224;2022-08-01T20:06:51;6.30;;;1.55;;
38318;SDS011;24121;53.536;10.224;2022-08-01T20:09:16;10.57;;;2.25;;
38318;SDS011;24121;53.536;10.224;2022-08-01T20:11:43;7.85;;;2.13;;
38318;SDS011;24121;53.536;10.224;2022-08-01T20:14:10;10.77;;;2.40;;
38318;SDS011;24121;53.536;10.224;2022-08-01T20:16:38;11.23;;;2.45;;
38318;SDS011;24121;53.536;10.224;2022-08-01T20:19:03;8.10;;;2.15;;
38318;SDS011;24121;53.536;10.224;2022-08-01T20:21:29;8.23;;;2.20;;
38318;SDS011;24121;53.536;10.224;2022-08-01T20:23:59;13.10;;;2.75;;
38318;SDS011;24121;53.536;10.224;2022-08-01T20:26:26;9.38;;;2.15;;
38318;SDS011;24121;53.536;10.224;2022-08-01T20:28:52;11.75;;;2.72;;
38318;SDS011;24121;53.536;10.224;2022-08-01T20:31:18;7.65;;;2.00;;
38318;SDS011;24121;53.536;10.224;2022-08-01T20:33:46;7.88;;;2.55;;
38318;SDS011;24121;53.536;10.224;2022-08-01T20:36:12;10.57;;;2.40;;
38318;SDS011;24121;53.536;10.224;2022-08-01T20:38:39;10.23;;;2.33;;
38318;SDS011;24121;53.536;10.224;2022-08-01T20:41:05;7.72;;;2.10;;
38318;SDS011;24121;53.536;10.224;2022-08-01T20:43:31;8.45;;;2.30;;
38318;SDS011;24121;53.536;10.224;2022-08-01T20:45:56;12.07;;;2.70;;
38318;SDS011;24121;53.536;10.224;2022-08-01T20:48:25;12.30;;;2.63;;
38318;SDS011;24121;53.536;10.224;2022-08-01T20:50:52;11.93;;;2.30;;
38318;SDS011;24121;53.536;10.224;2022-08-01T20:53:36;8.52;;;2.35;;
38318;SDS011;24121;53.536;10.224;2022-08-01T21:02:06;5.97;;;1.80;;
38318;SDS011;24121;53.536;10.224;2022-08-01T21:07:25;7.70;;;2.08;;
38318;SDS011;24121;53.536;10.224;2022-08-01T21:10:12;6.93;;;2.30;;
38318;SDS011;24121;53.536;10.224;2022-08-01T21:12:49;9.73;;;2.05;;
38318;SDS011;24121;53.536;10.224;2022-08-01T21:15:32;11.35;;;2.83;;
38318;SDS011;24121;53.536;10.224;2022-08-01T21:18:21;8.48;;;2.28;;
38318;SDS011;24121;53.536;10.224;2022-08-01T21:20:45;5.13;;;2.00;;
38318;SDS011;24121;53.536;10.224;2022-08-01T21:23:26;11.68;;;2.33;;
38318;SDS011;24121;53.536;10.224;2022-08-01T21:25:59;13.27;;;2.30;;
38318;SDS011;24121;53.536;10.224;2022-08-01T21:28:25;7.35;;;2.17;;
38318;SDS011;24121;53.536;10.224;2022-08-01T21:30:51;7.53;;;2.17;;
38318;SDS011;24121;53.536;10.224;2022-08-01T21:33:23;9.73;;;2.40;;
38318;SDS011;24121;53.536;10.224;2022-08-01T21:35:53;7.72;;;1.77;;
38318;SDS011;24121;53.536;10.224;2022-08-01T21:38:20;8.15;;;2.42;;
38318;SDS011;24121;53.536;10.224;2022-08-01T21:40:47;8.05;;;1.95;;
38318;SDS011;24121;53.536;10.224;2022-08-01T21:43:14;8.32;;;2.30;;
38318;SDS011;24121;53.536;10.224;2022-08-01T21:45:39;7.10;;;2.30;;
38318;SDS011;24121;53.536;10.224;2022-08-01T21:48:06;12.20;;;2.13;;
38318;SDS011;24121;53.536;10.224;2022-08-01T21:50:36;9.65;;;2.60;;
38318;SDS011;24121;53.536;10.224;2022-08-01T21:56:10;8.70;;;2.05;;
38318;SDS011;24121;53.536;10.224;2022-08-01T21:58:51;6.55;;;2.05;;
38318;SDS011;24121;53.536;10.224;2022-08-01T22:01:31;7.22;;;2.53;;
38318;SDS011;24121;53.536;10.224;2022-08-01T22:04:00;7.38;;;2.40;;
38318;SDS011;24121;53.536;10.224;2022-08-01T22:06:26;6.80;;;2.38;;
38318;SDS011;24121;53.536;10.224;2022-08-01T22:08:53;8.52;;;2.50;;
38318;SDS011;24121;53.536;10.224;2022-08-01T22:11:27;13.45;;;2.67;;
38318;SDS011;24121;53.536;10.224;2022-08-01T22:13:56;7.88;;;2.42;;
38318;SDS011;24121;53.536;10.224;2022-08-01T22:16:22;5.85;;;2.17;;
38318;SDS011;24121;53.536;10.224;2022-08-01T22:18:50;7.43;;;2.47;;
38318;SDS011;24121;53.536;10.224;2022-08-01T22:21:15;10.90;;;2.50;;
38318;SDS011;24121;53.536;10.224;2022-08-01T22:23:41;6.35;;;2.40;;
38318;SDS011;24121;53.536;10.224;2022-08-01T22:26:08;8.95;;;3.08;;
38318;SDS011;24121;53.536;10.224;2022-08-01T22:28:34;6.97;;;2.33;;
38318;SDS011;24121;53.536;10.224;2022-08-01T22:31:01;5.18;;;2.05;;
38318;SDS011;24121;53.536;10.224;2022-08-01T22:33:27;8.27;;;2.50;;
38318;SDS011;24121;53.536;10.224;2022-08-01T22:35:52;6.50;;;2.33;;
38318;SDS011;24121;53.536;10.224;2022-08-01T22:38:20;8.38;;;2.55;;
38318;SDS011;24121;53.536;10.224;2022-08-01T22:40:51;8.02;;;3.00;;
38318;SDS011;24121;53.536;10.224;2022-08-01T22:43:27;8.27;;;2.45;;
38318;SDS011;24121;53.536;10.224;2022-08-01T22:46:08;9.10;;;3.00;;
38318;SDS011;24121;53.536;10.224;2022-08-01T22:48:43;10.25;;;2.70;;
38318;SDS011;24121;53.536;10.224;2022-08-01T22:51:25;7.38;;;2.60;;
38318;SDS011;24121;53.536;10.224;2022-08-01T22:54:06;7.78;;;3.00;;
38318;SDS011;24121;53.536;10.224;2022-08-01T22:56:37;4.95;;;2.30;;
38318;SDS011;24121;53.536;10.224;2022-08-01T22:59:07;6.57;;;2.70;;
38318;SDS011;24121;53.536;10.224;2022-08-01T23:01:36;5.07;;;2.30;;
38318;SDS011;24121;53.536;10.224;2022-08-01T23:04:05;5.25;;;2.55;;
38318;SDS011;24121;53.536;10.224;2022-08-01T23:06:37;6.57;;;2.70;;
38318;SDS011;24121;53.536;10.224;2022-08-01T23:09:06;8.85;;;3.15;;
38318;SDS011;24121;53.536;10.224;2022-08-01T23:11:31;6.97;;;2.67;;
38318;SDS011;24121;53.536;10.224;2022-08-01T23:13:57;8.52;;;3.72;;
38318;SDS011;24121;53.536;10.224;2022-08-01T23:16:27;8.63;;;3.08;;
38318;SDS011;24121;53.536;10.224;2022-08-01T23:18:53;5.05;;;2.83;;
38318;SDS011;24121;53.536;10.224;2022-08-01T23:21:19;11.27;;;2.90;;
38318;SDS011;24121;53.536;10.224;2022-08-01T23:23:46;7.07;;;2.95;;
38318;SDS011;24121;53.536;10.224;2022-08-01T23:26:12;7.80;;;3.05;;
38318;SDS011;24121;53.536;10.224;2022-08-01T23:28:39;8.27;;;2.75;;
38318;SDS011;24121;53.536;10.224;2022-08-01T23:31:04;10.32;;;3.13;;
38318;SDS011;24121;53.536;10.224;2022-08-01T23:33:30;9.95;;;3.03;;
38318;SDS011;24121;53.536;10.224;2022-08-01T23:35:56;7.35;;;2.92;;
38318;SDS011;24121;53.536;10.224;2022-08-01T23:38:21;8.18;;;2.75;;
38318;SDS011;24121;53.536;10.224;2022-08-01T23:40:46;10.32;;;3.95;;
38318;SDS011;24121;53.536;10.224;2022-08-01T23:43:13;11.75;;;3.80;;